createdAt,value
2024-01-28T00:01:43.052Z,2.30
2024-01-28T00:04:13.369Z,8.50
2024-01-28T00:06:42.323Z,1.45
2024-01-28T00:09:11.122Z,1.75
2024-01-28T00:11:40.891Z,3.55
2024-01-28T00:14:09.533Z,4.55
2024-01-28T00:16:38.400Z,2.20
2024-01-28T00:19:07.396Z,3.38
2024-01-28T00:21:37.657Z,5.43
2024-01-28T00:24:08.331Z,1.30
2024-01-28T00:26:41.293Z,1.23
2024-01-28T00:29:10.558Z,3.17
2024-01-28T00:31:39.170Z,2.20
2024-01-28T00:34:07.929Z,1.95
2024-01-28T00:36:38.085Z,1.73
2024-01-28T00:39:06.865Z,3.55
2024-01-28T00:41:37.964Z,4.05
2024-01-28T00:44:07.145Z,1.70
2024-01-28T00:46:35.755Z,2.00
2024-01-28T00:49:05.018Z,2.55
2024-01-28T00:51:34.205Z,1.95
2024-01-28T00:54:05.766Z,1.67
2024-01-28T00:56:35.138Z,3.03
2024-01-28T00:59:03.814Z,2.60
2024-01-28T01:01:32.802Z,2.65
2024-01-28T01:04:01.579Z,3.00
2024-01-28T01:06:30.418Z,3.08
2024-01-28T01:08:59.078Z,1.08
2024-01-28T01:11:29.242Z,2.15
2024-01-28T01:13:57.949Z,3.05
2024-01-28T01:16:26.557Z,2.35
2024-01-28T01:18:55.335Z,2.55
2024-01-28T01:21:24.017Z,1.75
2024-01-28T01:23:52.704Z,1.70
2024-01-28T01:26:21.319Z,1.55
2024-01-28T01:28:51.495Z,2.58
2024-01-28T01:31:20.184Z,3.85
2024-01-28T01:33:48.970Z,2.78
2024-01-28T01:36:17.826Z,2.17
2024-01-28T01:38:46.447Z,3.20
2024-01-28T01:41:15.379Z,1.55
2024-01-28T01:43:44.133Z,2.53
2024-01-28T01:46:15.246Z,4.55
2024-01-28T01:48:45.479Z,3.20
2024-01-28T01:51:14.640Z,1.75
2024-01-28T01:53:44.985Z,1.13
2024-01-28T01:56:14.427Z,2.15
2024-01-28T01:58:43.350Z,5.18
2024-01-28T02:01:17.934Z,1.85
2024-01-28T02:03:46.878Z,2.97
2024-01-28T02:06:18.427Z,1.52
2024-01-28T02:08:48.065Z,2.60
2024-01-28T02:11:16.987Z,3.17
2024-01-28T02:13:45.535Z,6.32
2024-01-28T02:16:15.687Z,2.28
2024-01-28T02:18:44.515Z,3.17
2024-01-28T02:21:13.430Z,2.58
2024-01-28T02:23:43.693Z,1.63
2024-01-28T02:26:12.660Z,1.92
2024-01-28T02:28:41.216Z,3.20
2024-01-28T02:31:09.910Z,1.73
2024-01-28T02:33:38.656Z,2.05
2024-01-28T02:36:08.796Z,3.33
2024-01-28T02:38:37.486Z,3.10
2024-01-28T02:41:07.598Z,1.65
2024-01-28T02:43:36.362Z,1.98
2024-01-28T02:46:06.554Z,2.80
2024-01-28T02:48:35.384Z,3.35
2024-01-28T02:51:04.262Z,6.22
2024-01-28T02:53:33.060Z,4.70
2024-01-28T02:56:02.347Z,1.52
2024-01-28T02:58:33.110Z,1.73
2024-01-28T03:01:02.606Z,3.78
2024-01-28T03:03:31.606Z,5.95
2024-01-28T03:06:00.351Z,1.95
2024-01-28T03:08:28.959Z,2.33
2024-01-28T03:10:57.681Z,3.40
2024-01-28T03:13:26.408Z,2.17
2024-01-28T03:15:56.899Z,6.03
2024-01-28T03:18:25.681Z,2.42
2024-01-28T03:20:54.269Z,2.90
2024-01-28T03:23:23.004Z,1.38
2024-01-28T03:25:51.689Z,2.28
2024-01-28T03:28:20.395Z,1.90
2024-01-28T03:30:49.077Z,1.95
2024-01-28T03:33:19.336Z,3.40
2024-01-28T03:35:48.200Z,4.18
2024-01-28T03:38:16.837Z,3.42
2024-01-28T03:40:45.631Z,2.58
2024-01-28T03:43:14.789Z,1.45
2024-01-28T03:45:43.629Z,1.30
2024-01-28T03:48:12.561Z,3.00
2024-01-28T03:50:42.848Z,3.95
2024-01-28T03:53:11.741Z,1.50
2024-01-28T03:55:40.351Z,2.78
2024-01-28T03:58:09.069Z,0.75
2024-01-28T04:00:38.789Z,2.53
2024-01-28T04:03:07.994Z,5.20
2024-01-28T04:05:36.709Z,2.70
2024-01-28T04:08:10.941Z,2.90
2024-01-28T04:10:39.711Z,3.05
2024-01-28T04:13:08.367Z,1.48
2024-01-28T04:15:37.170Z,3.10
2024-01-28T04:18:06.864Z,6.25
2024-01-28T04:20:35.662Z,1.33
2024-01-28T04:23:06.056Z,3.00
2024-01-28T04:25:36.530Z,7.95
2024-01-28T04:28:05.358Z,4.45
2024-01-28T04:30:34.203Z,1.60
2024-01-28T04:33:03.002Z,4.25
2024-01-28T04:35:31.715Z,2.15
2024-01-28T04:38:00.474Z,0.82
2024-01-28T04:40:29.069Z,3.65
2024-01-28T04:42:59.364Z,1.75
2024-01-28T04:45:28.133Z,1.90
2024-01-28T04:47:56.874Z,2.95
2024-01-28T04:50:26.437Z,1.55
2024-01-28T04:52:55.053Z,1.27
2024-01-28T04:55:23.766Z,1.73
2024-01-28T04:57:52.582Z,3.38
2024-01-28T05:00:23.144Z,2.25
2024-01-28T05:02:52.141Z,3.70
2024-01-28T05:05:20.866Z,3.47
2024-01-28T05:07:49.735Z,0.68
2024-01-28T05:10:18.631Z,1.10
2024-01-28T05:12:49.222Z,2.75
2024-01-28T05:15:18.988Z,1.10
2024-01-28T05:17:49.269Z,1.25
2024-01-28T05:20:18.140Z,2.85
2024-01-28T05:22:46.799Z,1.02
2024-01-28T05:25:15.448Z,1.40
2024-01-28T05:27:44.929Z,1.85
2024-01-28T05:30:14.132Z,0.85
2024-01-28T05:32:43.110Z,1.25
2024-01-28T05:35:13.236Z,1.10
2024-01-28T05:37:42.283Z,3.65
2024-01-28T05:40:12.276Z,3.75
2024-01-28T05:42:41.022Z,1.25
2024-01-28T05:45:10.227Z,3.15
2024-01-28T05:47:39.062Z,1.10
2024-01-28T05:50:08.193Z,2.47
2024-01-28T05:52:38.263Z,7.15
2024-01-28T05:55:07.599Z,4.45
2024-01-28T05:57:36.377Z,1.45
2024-01-28T06:00:07.548Z,1.77
2024-01-28T06:02:37.740Z,2.13
2024-01-28T06:05:07.009Z,2.88
2024-01-28T06:07:35.749Z,1.33
2024-01-28T06:10:06.608Z,2.42
2024-01-28T06:12:35.544Z,0.77
2024-01-28T06:15:08.508Z,3.80
2024-01-28T06:17:37.724Z,2.43
2024-01-28T06:20:07.862Z,1.50
2024-01-28T06:22:37.997Z,1.67
2024-01-28T06:25:09.734Z,3.33
2024-01-28T06:27:38.525Z,3.70
2024-01-28T06:30:08.552Z,3.78
2024-01-28T06:32:37.672Z,3.38
2024-01-28T06:35:06.883Z,1.63
2024-01-28T06:37:35.576Z,1.88
2024-01-28T06:40:04.448Z,4.13
2024-01-28T06:42:34.658Z,3.10
2024-01-28T06:45:03.355Z,2.55
2024-01-28T06:47:32.001Z,2.08
2024-01-28T06:50:00.938Z,2.33
2024-01-28T06:52:29.588Z,1.58
2024-01-28T06:54:58.573Z,6.15
2024-01-28T06:57:27.390Z,0.80
2024-01-28T06:59:57.553Z,2.28
2024-01-28T07:02:26.972Z,0.90
2024-01-28T07:04:55.880Z,4.22
2024-01-28T07:07:25.318Z,1.80
2024-01-28T07:09:54.074Z,1.38
2024-01-28T07:12:22.803Z,2.58
2024-01-28T07:14:51.572Z,2.90
2024-01-28T07:17:21.680Z,2.65
2024-01-28T07:19:50.413Z,1.50
2024-01-28T07:22:19.192Z,4.60
2024-01-28T07:24:47.935Z,2.92
2024-01-28T07:27:16.678Z,1.38
2024-01-28T07:29:45.925Z,2.10
2024-01-28T07:32:14.875Z,1.25
2024-01-28T07:34:45.363Z,4.95
2024-01-28T07:37:14.203Z,3.92
2024-01-28T07:39:42.855Z,1.63
2024-01-28T07:42:11.597Z,2.17
2024-01-28T07:44:40.152Z,2.28
2024-01-28T07:47:08.875Z,3.72
2024-01-28T07:49:37.642Z,1.25
2024-01-28T07:52:08.394Z,1.67
2024-01-28T07:54:37.737Z,7.60
2024-01-28T07:57:06.868Z,1.08
2024-01-28T07:59:35.864Z,5.43
2024-01-28T08:02:04.544Z,1.35
2024-01-28T08:04:33.312Z,1.67
2024-01-28T08:07:02.329Z,2.72
2024-01-28T08:09:34.580Z,2.65
2024-01-28T08:12:03.367Z,3.90
2024-01-28T08:14:32.050Z,4.53
2024-01-28T08:17:00.866Z,2.28
2024-01-28T08:19:29.700Z,1.17
2024-01-28T08:21:58.516Z,5.28
2024-01-28T08:24:27.395Z,5.07
2024-01-28T08:26:57.673Z,7.57
2024-01-28T08:29:26.512Z,3.72
2024-01-28T08:31:55.574Z,4.03
2024-01-28T08:34:24.235Z,4.97
2024-01-28T08:36:52.928Z,3.28
2024-01-28T08:39:21.857Z,3.38
2024-01-28T08:41:50.499Z,1.05
2024-01-28T08:44:21.562Z,2.55
2024-01-28T08:46:50.321Z,1.77
2024-01-28T08:49:18.947Z,1.50
2024-01-28T08:51:47.866Z,1.45
2024-01-28T08:54:16.590Z,4.70
2024-01-28T08:56:45.267Z,1.42
2024-01-28T08:59:14.119Z,4.55
2024-01-28T09:01:45.666Z,2.17
2024-01-28T09:04:14.560Z,1.98
2024-01-28T09:06:43.302Z,1.48
2024-01-28T09:09:12.412Z,2.88
2024-01-28T09:11:41.219Z,4.65
2024-01-28T09:14:09.966Z,1.00
2024-01-28T09:16:38.620Z,2.13
2024-01-28T09:19:08.839Z,0.68
2024-01-28T09:21:37.568Z,2.08
2024-01-28T09:24:06.950Z,2.78
2024-01-28T09:26:35.705Z,1.50
2024-01-28T09:29:04.409Z,1.50
2024-01-28T09:31:33.235Z,3.15
2024-01-28T09:34:02.075Z,2.05
2024-01-28T09:36:32.171Z,5.70
2024-01-28T09:39:00.896Z,1.60
2024-01-28T09:41:44.145Z,3.85
2024-01-28T09:44:12.913Z,2.30
2024-01-28T09:46:41.755Z,1.98
2024-01-28T09:49:12.943Z,2.50
2024-01-28T09:51:44.201Z,3.70
2024-01-28T09:54:14.264Z,2.53
2024-01-28T09:56:45.129Z,3.45
2024-01-28T09:59:16.926Z,2.92
2024-01-28T10:01:46.866Z,4.32
2024-01-28T10:04:17.650Z,3.13
2024-01-28T10:06:49.812Z,1.67
2024-01-28T10:09:18.639Z,9.63
2024-01-28T10:11:47.570Z,3.00
2024-01-28T10:14:16.413Z,1.10
2024-01-28T10:16:47.691Z,2.33
2024-01-28T10:19:16.634Z,0.80
2024-01-28T10:21:45.530Z,3.42
2024-01-28T10:24:17.615Z,1.00
2024-01-28T10:26:46.480Z,5.68
2024-01-28T10:29:15.961Z,1.80
2024-01-28T10:31:44.686Z,1.98
2024-01-28T10:34:13.530Z,1.23
2024-01-28T10:36:48.250Z,2.90
2024-01-28T10:39:22.371Z,0.75
2024-01-28T10:41:57.907Z,1.08
2024-01-28T10:44:27.672Z,2.53
2024-01-28T10:47:01.336Z,2.67
2024-01-28T10:49:34.332Z,1.27
2024-01-28T10:52:03.881Z,4.30
2024-01-28T10:54:34.445Z,1.38
2024-01-28T10:57:05.954Z,2.42
2024-01-28T10:59:38.147Z,3.55
2024-01-28T11:02:08.304Z,1.95
2024-01-28T11:04:38.318Z,1.42
2024-01-28T11:07:07.719Z,2.45
2024-01-28T11:09:38.009Z,3.03
2024-01-28T11:12:08.302Z,1.08
2024-01-28T11:14:38.794Z,2.33
2024-01-28T11:17:12.854Z,2.30
2024-01-28T11:19:41.898Z,2.47
2024-01-28T11:22:17.004Z,4.47
2024-01-28T11:24:54.905Z,4.22
2024-01-28T11:27:24.240Z,1.38
2024-01-28T11:29:58.838Z,2.83
2024-01-28T11:32:35.270Z,2.88
2024-01-28T11:35:04.086Z,1.38
2024-01-28T11:37:35.887Z,1.35
2024-01-28T11:40:07.467Z,1.25
2024-01-28T11:42:36.370Z,3.42
2024-01-28T11:45:05.664Z,1.10
2024-01-28T11:47:34.336Z,1.25
2024-01-28T11:50:03.291Z,2.58
2024-01-28T11:52:31.960Z,1.10
2024-01-28T11:55:10.539Z,0.80
2024-01-28T11:57:41.605Z,2.67
2024-01-28T12:00:12.295Z,2.25
2024-01-28T12:02:43.544Z,2.22
2024-01-28T12:05:13.311Z,1.33
2024-01-28T12:07:42.214Z,0.60
2024-01-28T12:10:13.998Z,1.27
2024-01-28T12:12:45.507Z,0.40
2024-01-28T12:15:15.723Z,1.75
2024-01-28T12:17:45.933Z,2.58
2024-01-28T12:20:22.664Z,1.33
2024-01-28T12:22:51.739Z,3.03
2024-01-28T12:25:24.675Z,0.75
2024-01-28T12:27:55.834Z,1.90
2024-01-28T12:30:24.768Z,1.70
2024-01-28T12:32:53.674Z,1.55
2024-01-28T12:35:22.493Z,1.77
2024-01-28T12:37:51.094Z,0.40
2024-01-28T12:40:19.856Z,2.08
2024-01-28T12:42:48.649Z,1.02
2024-01-28T12:45:19.048Z,5.25
2024-01-28T12:47:47.700Z,3.72
2024-01-28T12:50:16.500Z,1.90
2024-01-28T12:52:45.454Z,2.22
2024-01-28T12:55:14.489Z,3.30
2024-01-28T12:57:43.977Z,4.53
2024-01-28T13:00:15.654Z,1.13
2024-01-28T13:02:45.949Z,1.63
2024-01-28T13:05:16.360Z,1.60
2024-01-28T13:07:45.139Z,5.93
2024-01-28T13:10:14.327Z,1.45
2024-01-28T13:12:44.920Z,1.77
2024-01-28T13:15:14.140Z,1.10
2024-01-28T13:17:43.785Z,2.45
2024-01-28T13:20:15.080Z,2.70
2024-01-28T13:22:45.869Z,2.50
2024-01-28T13:25:16.920Z,1.85
2024-01-28T13:27:45.915Z,1.30
2024-01-28T13:30:15.141Z,2.88
2024-01-28T13:32:44.844Z,1.90
2024-01-28T13:35:15.780Z,1.45
2024-01-28T13:37:45.007Z,1.05
2024-01-28T13:40:14.157Z,1.33
2024-01-28T13:42:42.974Z,1.27
2024-01-28T13:45:13.634Z,1.83
2024-01-28T13:47:45.298Z,2.80
2024-01-28T13:50:15.577Z,5.75
2024-01-28T13:52:44.759Z,3.17
2024-01-28T13:55:13.715Z,3.65
2024-01-28T13:57:42.657Z,0.85
2024-01-28T14:00:12.614Z,0.77
2024-01-28T14:02:43.409Z,1.73
2024-01-28T14:05:14.296Z,1.63
2024-01-28T14:07:45.138Z,1.02
2024-01-28T14:10:14.340Z,2.03
2024-01-28T14:12:43.108Z,5.78
2024-01-28T14:15:12.620Z,1.15
2024-01-28T14:17:41.388Z,0.98
2024-01-28T14:20:10.857Z,1.60
2024-01-28T14:22:39.805Z,2.58
2024-01-28T14:25:10.911Z,2.72
2024-01-28T14:27:39.741Z,2.20
2024-01-28T14:30:09.697Z,2.72
2024-01-28T14:32:38.570Z,4.13
2024-01-28T14:35:08.070Z,1.13
2024-01-28T14:37:37.063Z,3.25
2024-01-28T14:40:07.421Z,2.83
2024-01-28T14:42:37.741Z,0.98
2024-01-28T14:45:07.769Z,7.38
2024-01-28T14:47:36.677Z,3.05
2024-01-28T14:50:05.870Z,1.58
2024-01-28T14:52:34.585Z,2.22
2024-01-28T14:55:03.442Z,1.20
2024-01-28T14:57:32.397Z,0.85
2024-01-28T15:00:04.746Z,2.30
2024-01-28T15:02:33.720Z,2.00
2024-01-28T15:05:06.353Z,2.47
2024-01-28T15:07:35.238Z,0.80
2024-01-28T15:10:04.915Z,2.90
2024-01-28T15:12:33.956Z,1.42
2024-01-28T15:15:04.430Z,1.45
2024-01-28T15:17:33.251Z,2.17
2024-01-28T15:20:02.428Z,3.90
2024-01-28T15:22:31.528Z,2.17
2024-01-28T15:25:01.453Z,7.60
2024-01-28T15:27:31.100Z,3.72
2024-01-28T15:29:59.983Z,2.28
2024-01-28T15:32:30.398Z,3.60
2024-01-28T15:34:59.376Z,3.65
2024-01-28T15:37:28.411Z,1.05
2024-01-28T15:39:57.674Z,3.50
2024-01-28T15:42:26.518Z,1.38
2024-01-28T15:44:57.953Z,2.03
2024-01-28T15:47:27.392Z,3.05
2024-01-28T15:49:58.347Z,2.13
2024-01-28T15:52:28.059Z,2.00
2024-01-28T15:54:56.854Z,4.82
2024-01-28T15:57:26.021Z,4.95
2024-01-28T16:00:06.545Z,3.88
2024-01-28T16:02:36.820Z,6.68
2024-01-28T16:05:07.918Z,6.78
2024-01-28T16:07:37.207Z,6.20
2024-01-28T16:10:06.934Z,3.10
2024-01-28T16:12:35.754Z,3.00
2024-01-28T16:15:04.885Z,4.68
2024-01-28T16:17:33.751Z,3.17
2024-01-28T16:20:02.733Z,5.15
2024-01-28T16:22:33.049Z,5.72
2024-01-28T16:25:01.955Z,4.72
2024-01-28T16:27:30.961Z,5.90
2024-01-28T16:30:00.526Z,3.53
2024-01-28T16:32:29.303Z,1.52
2024-01-28T16:34:58.143Z,3.88
2024-01-28T16:37:27.223Z,5.55
2024-01-28T16:39:57.840Z,3.50
2024-01-28T16:42:26.839Z,2.85
2024-01-28T16:44:56.510Z,4.60
2024-01-28T16:47:26.453Z,1.85
2024-01-28T16:49:55.452Z,4.07
2024-01-28T16:52:25.875Z,3.05
2024-01-28T16:54:54.647Z,2.67
2024-01-28T16:57:25.821Z,2.17
2024-01-28T16:59:55.397Z,3.63
2024-01-28T17:02:24.649Z,4.95
2024-01-28T17:04:53.666Z,4.95
2024-01-28T17:07:22.775Z,1.77
2024-01-28T17:09:51.567Z,3.97
2024-01-28T17:12:20.742Z,5.28
2024-01-28T17:14:52.773Z,3.53
2024-01-28T17:17:23.523Z,3.33
2024-01-28T17:19:52.536Z,3.42
2024-01-28T17:22:21.564Z,5.07
2024-01-28T17:24:50.480Z,8.23
2024-01-28T17:27:19.537Z,5.47
2024-01-28T17:29:48.802Z,4.78
2024-01-28T17:32:19.241Z,11.27
2024-01-28T17:34:52.116Z,4.30
2024-01-28T17:37:20.985Z,4.37
2024-01-28T17:39:49.939Z,3.97
2024-01-28T17:42:19.065Z,7.85
2024-01-28T17:44:47.897Z,8.07
2024-01-28T17:47:17.464Z,4.47
2024-01-28T17:49:47.737Z,3.78
2024-01-28T17:52:16.704Z,8.80
2024-01-28T17:54:45.434Z,5.88
2024-01-28T17:57:14.488Z,5.28
2024-01-28T17:59:43.524Z,7.60
2024-01-28T18:02:13.571Z,4.28
2024-01-28T18:04:42.695Z,2.75
2024-01-28T18:07:13.198Z,2.47
2024-01-28T18:09:43.045Z,6.43
2024-01-28T18:12:12.771Z,6.95
2024-01-28T18:14:41.536Z,5.25
2024-01-28T18:17:10.812Z,10.18
2024-01-28T18:19:39.592Z,7.00
2024-01-28T18:22:08.526Z,8.30
2024-01-28T18:24:38.688Z,8.15
2024-01-28T18:27:07.488Z,8.60
2024-01-28T18:29:36.497Z,7.13
2024-01-28T18:32:05.544Z,4.15
2024-01-28T18:34:35.077Z,6.50
2024-01-28T18:37:03.903Z,6.40
2024-01-28T18:39:32.739Z,8.38
2024-01-28T18:42:02.991Z,7.18
2024-01-28T18:44:31.878Z,6.10
2024-01-28T18:47:00.513Z,9.10
2024-01-28T18:49:29.290Z,11.32
2024-01-28T18:51:59.397Z,6.30
2024-01-28T18:54:28.170Z,9.15
2024-01-28T18:56:56.884Z,6.45
2024-01-28T18:59:27.416Z,11.38
2024-01-28T19:01:56.223Z,9.85
2024-01-28T19:04:23.967Z,10.27
2024-01-28T19:06:52.947Z,7.00
2024-01-28T19:09:22.194Z,7.97
2024-01-28T19:11:50.892Z,7.55
2024-01-28T19:14:19.765Z,9.00
2024-01-28T19:16:49.925Z,7.05
2024-01-28T19:19:20.036Z,5.85
2024-01-28T19:21:48.843Z,9.88
2024-01-28T19:24:17.751Z,12.27
2024-01-28T19:26:46.596Z,16.63
2024-01-28T19:29:15.188Z,9.90
2024-01-28T19:31:44.785Z,10.15
2024-01-28T19:34:17.406Z,7.93
2024-01-28T19:36:47.201Z,9.48
2024-01-28T19:39:16.844Z,9.77
2024-01-28T19:41:47.758Z,9.18
2024-01-28T19:44:16.682Z,6.60
2024-01-28T19:46:45.681Z,6.70
2024-01-28T19:49:16.239Z,9.50
2024-01-28T19:51:45.075Z,6.30
2024-01-28T19:54:13.790Z,10.25
2024-01-28T19:56:42.452Z,9.30
2024-01-28T19:59:11.463Z,9.70
2024-01-28T20:01:40.935Z,6.70
2024-01-28T20:04:09.717Z,5.78
2024-01-28T20:06:39.967Z,6.45
2024-01-28T20:09:09.543Z,7.95
2024-01-28T20:11:38.162Z,8.27
2024-01-28T20:14:07.040Z,10.18
2024-01-28T20:16:35.926Z,8.63
2024-01-28T20:19:05.055Z,10.60
2024-01-28T20:21:34.107Z,6.68
2024-01-28T20:24:04.345Z,9.60
2024-01-28T20:26:33.189Z,8.50
2024-01-28T20:29:01.957Z,9.15
2024-01-28T20:31:30.720Z,6.80
2024-01-28T20:33:59.711Z,8.15
2024-01-28T20:36:28.652Z,9.35
2024-01-28T20:38:57.309Z,12.82
2024-01-28T20:41:27.577Z,12.18
2024-01-28T20:43:56.354Z,10.52
2024-01-28T20:46:25.609Z,9.18
2024-01-28T20:48:54.526Z,9.40
2024-01-28T20:51:23.680Z,7.05
2024-01-28T20:53:52.585Z,10.18
2024-01-28T20:56:24.838Z,10.40
2024-01-28T20:58:55.039Z,10.77
2024-01-28T21:01:23.801Z,12.10
2024-01-28T21:03:52.589Z,9.50
2024-01-28T21:06:21.732Z,10.65
2024-01-28T21:08:50.753Z,12.27
2024-01-28T21:11:20.309Z,9.15
2024-01-28T21:13:49.056Z,13.70
2024-01-28T21:16:19.297Z,10.48
2024-01-28T21:18:47.213Z,9.50
2024-01-28T21:21:16.054Z,15.00
2024-01-28T21:23:44.736Z,14.07
2024-01-28T21:26:13.415Z,14.48
2024-01-28T21:28:42.150Z,9.75
2024-01-28T21:31:10.890Z,18.95
2024-01-28T21:33:41.244Z,10.35
2024-01-28T21:36:10.205Z,15.90
2024-01-28T21:38:39.812Z,10.27
2024-01-28T21:41:08.945Z,9.93
2024-01-28T21:43:37.565Z,11.07
2024-01-28T21:46:06.303Z,13.80
2024-01-28T21:48:35.110Z,11.48
2024-01-28T21:51:06.012Z,15.15
2024-01-28T21:53:34.669Z,11.73
2024-01-28T21:56:05.626Z,9.45
2024-01-28T21:58:35.691Z,12.73
2024-01-28T22:01:05.015Z,11.00
2024-01-28T22:03:33.985Z,12.70
2024-01-28T22:06:03.120Z,15.02
2024-01-28T22:08:33.296Z,13.52
2024-01-28T22:11:02.114Z,13.85
2024-01-28T22:13:30.888Z,11.82
2024-01-28T22:15:59.857Z,11.73
2024-01-28T22:18:28.565Z,13.95
2024-01-28T22:20:57.440Z,10.82
2024-01-28T22:23:26.241Z,10.93
2024-01-28T22:25:56.401Z,15.57
2024-01-28T22:28:25.239Z,10.18
2024-01-28T22:30:54.556Z,17.67
2024-01-28T22:33:23.878Z,14.98
2024-01-28T22:35:53.093Z,11.40
2024-01-28T22:38:21.808Z,11.13
2024-01-28T22:40:50.601Z,14.65
2024-01-28T22:43:20.974Z,12.95
2024-01-28T22:45:49.769Z,13.55
2024-01-28T22:48:18.775Z,16.33
2024-01-28T22:50:47.662Z,16.27
2024-01-28T22:53:18.560Z,15.43
2024-01-28T22:55:47.783Z,13.32
2024-01-28T22:58:16.412Z,22.58
2024-01-28T23:00:48.022Z,22.00
2024-01-28T23:03:16.817Z,9.95
2024-01-28T23:05:45.853Z,16.20
2024-01-28T23:08:14.785Z,15.63
2024-01-28T23:10:43.494Z,13.98
2024-01-28T23:13:12.239Z,14.60
2024-01-28T23:15:40.942Z,14.43
2024-01-28T23:18:11.288Z,20.83
2024-01-28T23:20:40.004Z,15.82
2024-01-28T23:23:08.726Z,17.77
2024-01-28T23:25:37.333Z,14.50
2024-01-28T23:28:06.896Z,16.27
2024-01-28T23:30:36.605Z,17.45
2024-01-28T23:33:05.675Z,17.75
2024-01-28T23:35:35.991Z,20.58
2024-01-28T23:38:05.156Z,10.30
2024-01-28T23:40:33.835Z,18.13
2024-01-28T23:43:03.780Z,20.65
2024-01-28T23:45:32.649Z,19.30
2024-01-28T23:48:01.380Z,13.15
2024-01-28T23:50:30.086Z,15.25
2024-01-28T23:53:00.428Z,22.58
2024-01-28T23:55:29.119Z,16.27
2024-01-28T23:57:57.917Z,20.38
